Current Weather

Central Park

Central Park, New York (KNYC)

Report from: Friday, August 19, 2022 12:51 AM EDT
Current time: Friday, August 19, 2022 1:42 AM EDT

Nearby weather
Weather history
Weather forecast

Temperature22.2°C (72.0°F)
Dew point14.4°C (57.9°F)
Winds 3 kts (1.5 m/s, 3.5 mph) Southwest (230°)
Visibility10 mi. (16.1 km)
Clouds Sky clear
Altimeter30.00 in.Hg (1016 mB)
Relative humidity61 %
Density altitude977 ft. (298 m)
Sea-level pressure101.5 kPa (1015 mB, 29.97 in.Hg)
Max temp last 24 hours30.6°C (87.1°F)
Min temp last 24 hours16.7°C (62.1°F)
Remarks Fully automated report
System requires maintenance
Automated weather observing station with precipitation discriminator
Flight conditions Visual Meteorological Conditions
Raw dataKNYC 190451Z AUTO 23003KT 10SM CLR 22/14 A3000 RMK AO2 SLP149 T02220144 403060167 $
An unhandled exception has occurred. See browser dev tools for details. Reload 🗙